sensor_id;sensor_type;location;lat;lon;timestamp;pressure;altitude;pressure_sealevel;temperature;humidity
64388;BME280;50709;52.648;4.764;2023-07-08T00:00:53;101916.34;;;23.85;51.35
64388;BME280;50709;52.648;4.764;2023-07-08T00:03:19;101914.75;;;23.29;52.24
64388;BME280;50709;52.648;4.764;2023-07-08T00:05:46;101912.31;;;23.73;51.45
64388;BME280;50709;52.648;4.764;2023-07-08T00:08:16;101905.81;;;23.80;49.90
64388;BME280;50709;52.648;4.764;2023-07-08T00:10:42;101911.34;;;22.97;52.65
64388;BME280;50709;52.648;4.764;2023-07-08T00:13:08;101893.78;;;23.45;51.90
64388;BME280;50709;52.648;4.764;2023-07-08T00:15:35;101862.44;;;23.26;51.65
64388;BME280;50709;52.648;4.764;2023-07-08T00:18:12;101902.69;;;23.44;51.10
64388;BME280;50709;52.648;4.764;2023-07-08T00:23:11;101879.75;;;22.58;52.99
64388;BME280;50709;52.648;4.764;2023-07-08T00:25:56;101896.66;;;23.13;52.27
64388;BME280;50709;52.648;4.764;2023-07-08T00:28:21;101888.28;;;23.24;51.76
64388;BME280;50709;52.648;4.764;2023-07-08T00:30:48;101902.31;;;23.02;52.81
64388;BME280;50709;52.648;4.764;2023-07-08T00:33:13;101891.88;;;23.23;51.92
64388;BME280;50709;52.648;4.764;2023-07-08T00:35:40;101848.09;;;22.77;51.61
64388;BME280;50709;52.648;4.764;2023-07-08T00:40:52;101892.38;;;22.79;52.41
64388;BME280;50709;52.648;4.764;2023-07-08T00:43:19;101894.88;;;23.39;51.67
64388;BME280;50709;52.648;4.764;2023-07-08T00:45:50;101906.47;;;22.83;52.93
64388;BME280;50709;52.648;4.764;2023-07-08T00:48:23;101895.84;;;23.37;52.06
64388;BME280;50709;52.648;4.764;2023-07-08T00:50:49;101879.91;;;23.08;52.57
64388;BME280;50709;52.648;4.764;2023-07-08T00:53:26;101887.03;;;22.81;52.19
64388;BME280;50709;52.648;4.764;2023-07-08T00:55:55;101882.94;;;22.97;52.18
64388;BME280;50709;52.648;4.764;2023-07-08T00:58:24;101864.56;;;23.16;52.27
64388;BME280;50709;52.648;4.764;2023-07-08T01:00:52;101878.66;;;23.20;52.20
64388;BME280;50709;52.648;4.764;2023-07-08T01:03:19;101879.41;;;23.24;51.83
64388;BME280;50709;52.648;4.764;2023-07-08T01:05:46;101874.78;;;23.02;52.59
64388;BME280;50709;52.648;4.764;2023-07-08T01:08:12;101876.00;;;23.20;52.69
64388;BME280;50709;52.648;4.764;2023-07-08T01:10:52;101875.38;;;23.10;52.23
64388;BME280;50709;52.648;4.764;2023-07-08T01:13:18;101857.47;;;22.89;51.58
64388;BME280;50709;52.648;4.764;2023-07-08T01:15:47;101868.03;;;22.65;52.44
64388;BME280;50709;52.648;4.764;2023-07-08T01:18:16;101875.50;;;22.52;54.06
64388;BME280;50709;52.648;4.764;2023-07-08T01:20:42;101869.91;;;22.61;53.04
64388;BME280;50709;52.648;4.764;2023-07-08T01:23:10;101866.91;;;22.44;53.61
64388;BME280;50709;52.648;4.764;2023-07-08T01:25:36;101863.00;;;22.82;52.97
64388;BME280;50709;52.648;4.764;2023-07-08T01:28:02;101865.44;;;22.62;53.03
64388;BME280;50709;52.648;4.764;2023-07-08T01:30:29;101862.53;;;22.41;53.13
64388;BME280;50709;52.648;4.764;2023-07-08T01:33:02;101862.38;;;22.47;53.39
64388;BME280;50709;52.648;4.764;2023-07-08T01:35:29;101859.22;;;22.90;52.78
64388;BME280;50709;52.648;4.764;2023-07-08T01:37:58;101868.03;;;22.37;53.60
64388;BME280;50709;52.648;4.764;2023-07-08T01:43:12;101849.09;;;22.74;53.18
64388;BME280;50709;52.648;4.764;2023-07-08T01:45:40;101860.38;;;22.24;54.49
64388;BME280;50709;52.648;4.764;2023-07-08T01:48:09;101842.03;;;22.45;53.85
64388;BME280;50709;52.648;4.764;2023-07-08T01:50:39;101840.19;;;22.47;53.69
64388;BME280;50709;52.648;4.764;2023-07-08T01:53:14;101840.44;;;22.67;53.92
64388;BME280;50709;52.648;4.764;2023-07-08T01:55:39;101838.16;;;22.82;53.26
64388;BME280;50709;52.648;4.764;2023-07-08T01:58:05;101840.75;;;22.85;53.09
64388;BME280;50709;52.648;4.764;2023-07-08T02:00:30;101835.66;;;23.04;52.28
64388;BME280;50709;52.648;4.764;2023-07-08T02:02:57;101841.94;;;22.48;54.46
64388;BME280;50709;52.648;4.764;2023-07-08T02:05:23;101823.53;;;22.40;53.54
64388;BME280;50709;52.648;4.764;2023-07-08T02:07:49;101833.50;;;22.04;54.44
64388;BME280;50709;52.648;4.764;2023-07-08T02:10:14;101830.84;;;22.32;53.53
64388;BME280;50709;52.648;4.764;2023-07-08T02:12:40;101820.44;;;22.26;53.60
64388;BME280;50709;52.648;4.764;2023-07-08T02:15:05;101825.47;;;22.33;54.40
64388;BME280;50709;52.648;4.764;2023-07-08T02:17:51;101812.84;;;22.12;54.65
64388;BME280;50709;52.648;4.764;2023-07-08T02:20:16;101815.09;;;21.97;54.92
64388;BME280;50709;52.648;4.764;2023-07-08T02:22:43;101827.94;;;22.41;53.70
64388;BME280;50709;52.648;4.764;2023-07-08T02:25:08;101806.75;;;22.38;54.26
64388;BME280;50709;52.648;4.764;2023-07-08T02:27:38;101817.09;;;22.19;54.34
64388;BME280;50709;52.648;4.764;2023-07-08T02:30:04;101803.94;;;22.43;53.12
64388;BME280;50709;52.648;4.764;2023-07-08T02:32:50;101807.38;;;22.46;54.20
64388;BME280;50709;52.648;4.764;2023-07-08T02:35:26;101802.09;;;22.45;54.38
64388;BME280;50709;52.648;4.764;2023-07-08T02:37:53;101803.53;;;22.55;53.19
64388;BME280;50709;52.648;4.764;2023-07-08T02:40:18;101791.16;;;22.54;52.81
64388;BME280;50709;52.648;4.764;2023-07-08T02:42:44;101803.13;;;22.41;53.55
64388;BME280;50709;52.648;4.764;2023-07-08T02:45:10;101791.75;;;21.77;54.30
64388;BME280;50709;52.648;4.764;2023-07-08T02:47:39;101790.31;;;22.24;54.38
64388;BME280;50709;52.648;4.764;2023-07-08T02:50:07;101795.59;;;22.25;53.17
64388;BME280;50709;52.648;4.764;2023-07-08T02:52:32;101791.91;;;22.01;54.02
64388;BME280;50709;52.648;4.764;2023-07-08T02:54:58;101789.53;;;21.62;54.18
64388;BME280;50709;52.648;4.764;2023-07-08T02:57:24;101784.75;;;22.03;54.81
64388;BME280;50709;52.648;4.764;2023-07-08T02:59:50;101788.28;;;22.32;54.05
64388;BME280;50709;52.648;4.764;2023-07-08T03:02:15;101785.09;;;22.21;53.51
64388;BME280;50709;52.648;4.764;2023-07-08T03:04:40;101794.78;;;21.95;54.27
64388;BME280;50709;52.648;4.764;2023-07-08T03:07:07;101788.69;;;22.20;53.77
64388;BME280;50709;52.648;4.764;2023-07-08T03:09:37;101779.44;;;22.03;54.82
64388;BME280;50709;52.648;4.764;2023-07-08T03:12:02;101788.41;;;21.71;54.20
64388;BME280;50709;52.648;4.764;2023-07-08T03:14:28;101788.63;;;21.93;53.72
64388;BME280;50709;52.648;4.764;2023-07-08T03:16:53;101784.69;;;21.76;54.11
64388;BME280;50709;52.648;4.764;2023-07-08T03:19:20;101786.38;;;21.79;53.86
64388;BME280;50709;52.648;4.764;2023-07-08T03:21:45;101779.25;;;21.79;54.21
64388;BME280;50709;52.648;4.764;2023-07-08T03:24:11;101781.66;;;21.89;54.65
64388;BME280;50709;52.648;4.764;2023-07-08T03:26:37;101784.41;;;21.86;54.03
64388;BME280;50709;52.648;4.764;2023-07-08T03:29:03;101786.22;;;21.83;53.99
64388;BME280;50709;52.648;4.764;2023-07-08T03:31:29;101783.50;;;21.87;54.05
64388;BME280;50709;52.648;4.764;2023-07-08T03:33:55;101780.88;;;22.13;53.21
64388;BME280;50709;52.648;4.764;2023-07-08T03:36:21;101778.75;;;21.96;54.35
64388;BME280;50709;52.648;4.764;2023-07-08T03:38:53;101783.66;;;22.10;52.53
64388;BME280;50709;52.648;4.764;2023-07-08T03:41:58;101781.59;;;22.18;53.49
64388;BME280;50709;52.648;4.764;2023-07-08T03:44:23;101781.06;;;21.79;54.11
64388;BME280;50709;52.648;4.764;2023-07-08T03:46:50;101778.38;;;21.49;54.69
64388;BME280;50709;52.648;4.764;2023-07-08T03:49:17;101772.66;;;21.63;54.25
64388;BME280;50709;52.648;4.764;2023-07-08T03:51:47;101775.44;;;21.60;53.91
64388;BME280;50709;52.648;4.764;2023-07-08T03:54:14;101787.50;;;21.70;54.77
64388;BME280;50709;52.648;4.764;2023-07-08T03:56:39;101783.34;;;21.91;54.01
64388;BME280;50709;52.648;4.764;2023-07-08T03:59:06;101786.25;;;21.21;55.44
64388;BME280;50709;52.648;4.764;2023-07-08T04:01:32;101773.72;;;21.57;55.10
64388;BME280;50709;52.648;4.764;2023-07-08T04:03:58;101786.75;;;21.96;53.81
64388;BME280;50709;52.648;4.764;2023-07-08T04:06:24;101784.47;;;21.54;55.29
64388;BME280;50709;52.648;4.764;2023-07-08T04:08:50;101784.75;;;21.42;54.86
64388;BME280;50709;52.648;4.764;2023-07-08T04:11:26;101788.94;;;21.82;54.68
64388;BME280;50709;52.648;4.764;2023-07-08T04:13:57;101795.88;;;21.25;55.62
64388;BME280;50709;52.648;4.764;2023-07-08T04:16:29;101795.22;;;21.48;55.40
64388;BME280;50709;52.648;4.764;2023-07-08T04:18:55;101797.69;;;21.56;54.44
64388;BME280;50709;52.648;4.764;2023-07-08T04:21:22;101782.13;;;21.73;54.98
64388;BME280;50709;52.648;4.764;2023-07-08T04:23:51;101785.81;;;21.36;55.44
64388;BME280;50709;52.648;4.764;2023-07-08T04:26:17;101772.41;;;21.41;55.69
64388;BME280;50709;52.648;4.764;2023-07-08T04:28:44;101792.41;;;21.52;55.19
64388;BME280;50709;52.648;4.764;2023-07-08T04:31:10;101802.69;;;21.33;54.83
64388;BME280;50709;52.648;4.764;2023-07-08T04:33:35;101799.56;;;21.50;55.33
64388;BME280;50709;52.648;4.764;2023-07-08T04:36:01;101807.88;;;21.71;54.72
64388;BME280;50709;52.648;4.764;2023-07-08T04:38:27;101797.31;;;21.37;55.26
64388;BME280;50709;52.648;4.764;2023-07-08T04:41:13;101792.19;;;21.62;54.69
64388;BME280;50709;52.648;4.764;2023-07-08T04:43:40;101801.22;;;21.86;54.49
64388;BME280;50709;52.648;4.764;2023-07-08T04:46:27;101802.91;;;21.59;55.17
64388;BME280;50709;52.648;4.764;2023-07-08T04:48:55;101794.34;;;21.47;55.45
64388;BME280;50709;52.648;4.764;2023-07-08T04:51:21;101795.25;;;21.46;55.68
64388;BME280;50709;52.648;4.764;2023-07-08T04:53:46;101790.75;;;21.48;55.98
64388;BME280;50709;52.648;4.764;2023-07-08T04:56:12;101784.50;;;21.20;55.77
64388;BME280;50709;52.648;4.764;2023-07-08T04:58:37;101788.66;;;21.28;56.27
64388;BME280;50709;52.648;4.764;2023-07-08T05:01:02;101782.50;;;21.28;55.73
64388;BME280;50709;52.648;4.764;2023-07-08T05:03:28;101782.84;;;21.47;55.99
64388;BME280;50709;52.648;4.764;2023-07-08T05:05:55;101785.09;;;21.92;55.11
64388;BME280;50709;52.648;4.764;2023-07-08T05:08:40;101758.22;;;21.40;55.88
64388;BME280;50709;52.648;4.764;2023-07-08T05:11:06;101782.59;;;21.25;56.03
64388;BME280;50709;52.648;4.764;2023-07-08T05:13:31;101779.19;;;21.51;55.51
64388;BME280;50709;52.648;4.764;2023-07-08T05:15:57;101783.19;;;21.34;56.16
64388;BME280;50709;52.648;4.764;2023-07-08T05:18:22;101784.94;;;21.03;56.21
64388;BME280;50709;52.648;4.764;2023-07-08T05:20:52;101780.13;;;21.48;55.31
64388;BME280;50709;52.648;4.764;2023-07-08T05:23:17;101787.19;;;21.49;55.04
64388;BME280;50709;52.648;4.764;2023-07-08T05:25:43;101777.72;;;21.41;55.15
64388;BME280;50709;52.648;4.764;2023-07-08T05:28:08;101795.16;;;21.82;54.85
64388;BME280;50709;52.648;4.764;2023-07-08T05:30:35;101786.97;;;21.59;54.65
64388;BME280;50709;52.648;4.764;2023-07-08T05:33:01;101794.09;;;22.16;54.35
64388;BME280;50709;52.648;4.764;2023-07-08T05:35:27;101776.81;;;21.73;54.79
64388;BME280;50709;52.648;4.764;2023-07-08T05:37:53;101781.59;;;22.18;53.93
64388;BME280;50709;52.648;4.764;2023-07-08T05:40:18;101785.44;;;21.50;55.28
64388;BME280;50709;52.648;4.764;2023-07-08T05:42:43;101776.28;;;21.90;54.49
64388;BME280;50709;52.648;4.764;2023-07-08T05:45:09;101781.38;;;21.68;53.96
64388;BME280;50709;52.648;4.764;2023-07-08T05:47:55;101780.00;;;21.55;54.69
64388;BME280;50709;52.648;4.764;2023-07-08T05:50:21;101780.34;;;22.02;53.30
64388;BME280;50709;52.648;4.764;2023-07-08T05:52:46;101792.63;;;22.36;52.86
64388;BME280;50709;52.648;4.764;2023-07-08T05:55:14;101778.19;;;22.15;53.87
64388;BME280;50709;52.648;4.764;2023-07-08T05:57:39;101787.66;;;22.52;52.23
64388;BME280;50709;52.648;4.764;2023-07-08T06:00:06;101777.22;;;22.17;53.23
64388;BME280;50709;52.648;4.764;2023-07-08T06:02:31;101771.19;;;22.93;51.44
64388;BME280;50709;52.648;4.764;2023-07-08T06:04:57;101779.47;;;23.10;50.85
64388;BME280;50709;52.648;4.764;2023-07-08T06:07:22;101777.03;;;23.29;50.67
64388;BME280;50709;52.648;4.764;2023-07-08T06:09:48;101766.81;;;22.92;50.56
64388;BME280;50709;52.648;4.764;2023-07-08T06:12:13;101774.97;;;23.61;49.35
64388;BME280;50709;52.648;4.764;2023-07-08T06:14:40;101767.84;;;23.38;49.50
64388;BME280;50709;52.648;4.764;2023-07-08T06:17:06;101757.81;;;23.45;49.60
64388;BME280;50709;52.648;4.764;2023-07-08T06:19:32;101762.72;;;23.79;49.09
64388;BME280;50709;52.648;4.764;2023-07-08T06:21:58;101754.00;;;24.22;48.23
64388;BME280;50709;52.648;4.764;2023-07-08T06:24:23;101752.78;;;23.61;48.93
64388;BME280;50709;52.648;4.764;2023-07-08T06:26:50;101759.03;;;23.36;49.43
64388;BME280;50709;52.648;4.764;2023-07-08T06:29:15;101759.50;;;23.95;48.78
64388;BME280;50709;52.648;4.764;2023-07-08T06:31:41;101756.31;;;23.85;48.48
64388;BME280;50709;52.648;4.764;2023-07-08T06:34:06;101770.78;;;24.01;48.33
64388;BME280;50709;52.648;4.764;2023-07-08T06:36:52;101763.31;;;24.33;47.82
64388;BME280;50709;52.648;4.764;2023-07-08T06:39:18;101760.19;;;24.44;47.82
64388;BME280;50709;52.648;4.764;2023-07-08T06:41:44;101765.47;;;24.01;47.52
64388;BME280;50709;52.648;4.764;2023-07-08T06:44:31;101751.97;;;23.59;47.79
64388;BME280;50709;52.648;4.764;2023-07-08T06:46:56;101748.75;;;23.96;46.86
64388;BME280;50709;52.648;4.764;2023-07-08T06:49:23;101759.25;;;24.23;47.33
64388;BME280;50709;52.648;4.764;2023-07-08T06:51:48;101760.63;;;24.11;46.99
64388;BME280;50709;52.648;4.764;2023-07-08T06:54:14;101758.50;;;24.19;47.70
64388;BME280;50709;52.648;4.764;2023-07-08T06:56:59;101762.63;;;23.82;47.52
64388;BME280;50709;52.648;4.764;2023-07-08T06:59:27;101764.34;;;24.07;46.58
64388;BME280;50709;52.648;4.764;2023-07-08T07:01:54;101703.13;;;23.58;47.19
64388;BME280;50709;52.648;4.764;2023-07-08T07:04:24;101744.59;;;24.11;46.18
64388;BME280;50709;52.648;4.764;2023-07-08T07:06:49;101766.56;;;24.18;46.74
64388;BME280;50709;52.648;4.764;2023-07-08T07:09:15;101763.84;;;23.97;47.06
64388;BME280;50709;52.648;4.764;2023-07-08T07:11:40;101755.41;;;24.30;46.07
64388;BME280;50709;52.648;4.764;2023-07-08T07:14:06;101767.84;;;24.09;46.71
64388;BME280;50709;52.648;4.764;2023-07-08T07:16:32;101754.41;;;24.33;46.28
64388;BME280;50709;52.648;4.764;2023-07-08T07:18:58;101750.94;;;24.74;45.96
64388;BME280;50709;52.648;4.764;2023-07-08T07:21:23;101751.66;;;24.34;45.91
64388;BME280;50709;52.648;4.764;2023-07-08T07:23:49;101737.19;;;24.83;46.12
64388;BME280;50709;52.648;4.764;2023-07-08T07:26:14;101755.78;;;24.43;45.53
64388;BME280;50709;52.648;4.764;2023-07-08T07:28:40;101752.53;;;24.78;46.20
64388;BME280;50709;52.648;4.764;2023-07-08T07:31:05;101761.38;;;24.80;44.68
64388;BME280;50709;52.648;4.764;2023-07-08T07:33:36;101767.09;;;24.91;45.27
64388;BME280;50709;52.648;4.764;2023-07-08T07:36:22;101760.91;;;24.91;45.11
64388;BME280;50709;52.648;4.764;2023-07-08T07:38:47;101768.75;;;25.14;45.24
64388;BME280;50709;52.648;4.764;2023-07-08T07:41:13;101755.84;;;25.05;45.39
64388;BME280;50709;52.648;4.764;2023-07-08T07:43:38;101758.97;;;24.51;46.38
64388;BME280;50709;52.648;4.764;2023-07-08T07:46:06;101762.63;;;25.12;45.46
64388;BME280;50709;52.648;4.764;2023-07-08T07:48:34;101757.53;;;25.27;45.63
64388;BME280;50709;52.648;4.764;2023-07-08T07:50:59;101753.69;;;25.53;44.54
64388;BME280;50709;52.648;4.764;2023-07-08T07:53:25;101741.69;;;25.62;44.59
64388;BME280;50709;52.648;4.764;2023-07-08T07:55:58;101749.91;;;25.38;44.69
64388;BME280;50709;52.648;4.764;2023-07-08T07:58:44;101746.38;;;25.38;44.39
64388;BME280;50709;52.648;4.764;2023-07-08T08:01:11;101740.81;;;25.80;44.74
64388;BME280;50709;52.648;4.764;2023-07-08T08:03:38;101714.41;;;25.53;44.02
64388;BME280;50709;52.648;4.764;2023-07-08T08:06:05;101731.63;;;25.48;44.32
64388;BME280;50709;52.648;4.764;2023-07-08T08:08:30;101730.00;;;25.64;44.39
64388;BME280;50709;52.648;4.764;2023-07-08T08:10:56;101736.03;;;25.49;44.07
64388;BME280;50709;52.648;4.764;2023-07-08T08:13:22;101745.56;;;25.35;44.91
64388;BME280;50709;52.648;4.764;2023-07-08T08:16:07;101750.59;;;25.62;44.25
64388;BME280;50709;52.648;4.764;2023-07-08T08:18:33;101736.47;;;25.59;44.21
64388;BME280;50709;52.648;4.764;2023-07-08T08:21:00;101759.91;;;25.92;44.72
64388;BME280;50709;52.648;4.764;2023-07-08T08:23:51;101752.66;;;25.75;44.83
64388;BME280;50709;52.648;4.764;2023-07-08T08:26:16;101757.94;;;25.57;44.48
64388;BME280;50709;52.648;4.764;2023-07-08T08:28:43;101751.00;;;25.91;44.66
64388;BME280;50709;52.648;4.764;2023-07-08T08:31:29;101751.09;;;25.71;44.46
64388;BME280;50709;52.648;4.764;2023-07-08T08:33:56;101740.91;;;25.60;44.62
64388;BME280;50709;52.648;4.764;2023-07-08T08:36:22;101734.56;;;25.99;43.84
64388;BME280;50709;52.648;4.764;2023-07-08T08:38:47;101732.72;;;25.63;45.78
64388;BME280;50709;52.648;4.764;2023-07-08T08:41:15;101720.59;;;25.56;44.30
64388;BME280;50709;52.648;4.764;2023-07-08T08:43:42;101731.34;;;25.73;43.35
64388;BME280;50709;52.648;4.764;2023-07-08T08:46:22;101736.59;;;25.94;43.75
64388;BME280;50709;52.648;4.764;2023-07-08T08:48:59;101723.66;;;26.40;42.63
64388;BME280;50709;52.648;4.764;2023-07-08T08:51:30;101720.00;;;26.59;42.15
64388;BME280;50709;52.648;4.764;2023-07-08T08:53:58;101706.88;;;26.00;42.40
64388;BME280;50709;52.648;4.764;2023-07-08T08:56:28;101733.56;;;26.38;42.04
64388;BME280;50709;52.648;4.764;2023-07-08T09:01:20;101721.59;;;26.63;41.49
64388;BME280;50709;52.648;4.764;2023-07-08T09:03:51;101724.72;;;26.73;41.85
64388;BME280;50709;52.648;4.764;2023-07-08T09:06:29;101731.28;;;26.65;42.51
64388;BME280;50709;52.648;4.764;2023-07-08T09:09:29;101743.47;;;27.24;41.86
64388;BME280;50709;52.648;4.764;2023-07-08T09:12:04;101744.09;;;27.11;41.87
64388;BME280;50709;52.648;4.764;2023-07-08T09:14:33;101739.03;;;27.23;40.90
64388;BME280;50709;52.648;4.764;2023-07-08T09:17:27;101749.19;;;27.00;42.32
64388;BME280;50709;52.648;4.764;2023-07-08T09:23:10;101761.97;;;27.28;41.81
64388;BME280;50709;52.648;4.764;2023-07-08T09:26:07;101747.59;;;27.47;41.59
64388;BME280;50709;52.648;4.764;2023-07-08T09:28:41;101744.66;;;27.83;40.57
64388;BME280;50709;52.648;4.764;2023-07-08T09:31:08;101737.47;;;27.18;41.22
64388;BME280;50709;52.648;4.764;2023-07-08T09:33:38;101738.75;;;27.45;41.39
64388;BME280;50709;52.648;4.764;2023-07-08T09:36:19;101742.94;;;27.66;41.37
64388;BME280;50709;52.648;4.764;2023-07-08T09:38:48;101739.56;;;27.29;40.65
64388;BME280;50709;52.648;4.764;2023-07-08T09:41:35;101739.44;;;27.96;40.52
64388;BME280;50709;52.648;4.764;2023-07-08T09:44:18;101726.91;;;27.65;40.96
64388;BME280;50709;52.648;4.764;2023-07-08T09:46:45;101736.19;;;27.91;39.75
64388;BME280;50709;52.648;4.764;2023-07-08T09:49:31;101736.47;;;28.02;40.34
64388;BME280;50709;52.648;4.764;2023-07-08T09:51:56;101734.53;;;27.89;39.71
64388;BME280;50709;52.648;4.764;2023-07-08T09:54:24;101739.03;;;27.72;40.59
64388;BME280;50709;52.648;4.764;2023-07-08T10:00:02;101741.66;;;27.74;39.73
64388;BME280;50709;52.648;4.764;2023-07-08T10:02:39;101731.81;;;28.20;39.91
64388;BME280;50709;52.648;4.764;2023-07-08T10:05:16;101739.84;;;28.06;39.87
64388;BME280;50709;52.648;4.764;2023-07-08T10:07:44;101731.03;;;28.34;39.79
64388;BME280;50709;52.648;4.764;2023-07-08T10:10:17;101729.69;;;27.79;39.98
64388;BME280;50709;52.648;4.764;2023-07-08T10:13:34;101712.59;;;27.96;40.00
64388;BME280;50709;52.648;4.764;2023-07-08T10:16:13;101708.28;;;28.10;39.50
64388;BME280;50709;52.648;4.764;2023-07-08T10:18:41;101733.31;;;27.94;40.62
64388;BME280;50709;52.648;4.764;2023-07-08T10:21:36;101734.28;;;28.40;39.25
64388;BME280;50709;52.648;4.764;2023-07-08T10:26:54;101726.84;;;28.75;39.57
64388;BME280;50709;52.648;4.764;2023-07-08T10:29:39;101734.09;;;28.59;40.04
64388;BME280;50709;52.648;4.764;2023-07-08T10:40:07;101726.53;;;28.80;38.96
64388;BME280;50709;52.648;4.764;2023-07-08T10:45:57;101744.22;;;28.84;37.77
64388;BME280;50709;52.648;4.764;2023-07-08T10:51:17;101736.47;;;28.63;37.96
64388;BME280;50709;52.648;4.764;2023-07-08T10:56:52;101710.63;;;29.20;38.08
64388;BME280;50709;52.648;4.764;2023-07-08T11:02:02;101735.81;;;29.33;38.02
64388;BME280;50709;52.648;4.764;2023-07-08T11:07:19;101724.75;;;29.38;37.45
64388;BME280;50709;52.648;4.764;2023-07-08T11:09:55;101728.59;;;29.34;37.45
64388;BME280;50709;52.648;4.764;2023-07-08T11:12:29;101726.44;;;29.68;38.27
64388;BME280;50709;52.648;4.764;2023-07-08T11:15:24;101721.19;;;29.23;38.28
64388;BME280;50709;52.648;4.764;2023-07-08T11:20:28;101725.22;;;29.59;37.87
64388;BME280;50709;52.648;4.764;2023-07-08T11:23:03;101718.91;;;29.17;38.23
64388;BME280;50709;52.648;4.764;2023-07-08T11:25:32;101724.28;;;29.46;38.09
64388;BME280;50709;52.648;4.764;2023-07-08T11:28:03;101727.34;;;29.40;38.10
64388;BME280;50709;52.648;4.764;2023-07-08T11:30:30;101716.69;;;29.52;38.40
64388;BME280;50709;52.648;4.764;2023-07-08T11:33:03;101721.34;;;29.63;37.86
64388;BME280;50709;52.648;4.764;2023-07-08T11:38:06;101713.97;;;29.67;37.63
64388;BME280;50709;52.648;4.764;2023-07-08T11:40:56;101713.66;;;29.57;36.97
64388;BME280;50709;52.648;4.764;2023-07-08T11:43:26;101703.47;;;29.62;37.11
64388;BME280;50709;52.648;4.764;2023-07-08T11:45:56;101692.25;;;29.56;36.95
64388;BME280;50709;52.648;4.764;2023-07-08T11:48:30;101704.84;;;29.97;37.26
64388;BME280;50709;52.648;4.764;2023-07-08T11:50:57;101694.59;;;29.89;37.14
64388;BME280;50709;52.648;4.764;2023-07-08T11:56:04;101697.59;;;30.25;36.94
64388;BME280;50709;52.648;4.764;2023-07-08T11:58:32;101701.72;;;30.30;37.71
64388;BME280;50709;52.648;4.764;2023-07-08T12:03:59;101695.16;;;30.34;36.38
64388;BME280;50709;52.648;4.764;2023-07-08T12:06:51;101697.59;;;30.25;35.69
64388;BME280;50709;52.648;4.764;2023-07-08T12:09:26;101668.16;;;30.22;36.61
64388;BME280;50709;52.648;4.764;2023-07-08T12:12:02;101687.09;;;30.47;36.73
64388;BME280;50709;52.648;4.764;2023-07-08T12:14:47;101698.13;;;30.70;36.00
64388;BME280;50709;52.648;4.764;2023-07-08T12:17:14;101692.94;;;30.67;36.52
64388;BME280;50709;52.648;4.764;2023-07-08T12:19:42;101687.88;;;30.62;36.59
64388;BME280;50709;52.648;4.764;2023-07-08T12:22:10;101681.38;;;30.91;36.29
64388;BME280;50709;52.648;4.764;2023-07-08T12:24:37;101667.50;;;30.71;36.10
64388;BME280;50709;52.648;4.764;2023-07-08T12:27:03;101686.69;;;30.66;36.01
64388;BME280;50709;52.648;4.764;2023-07-08T12:29:28;101679.25;;;30.57;36.89
64388;BME280;50709;52.648;4.764;2023-07-08T12:31:54;101675.81;;;30.68;36.83
64388;BME280;50709;52.648;4.764;2023-07-08T12:34:21;101673.53;;;30.87;36.98
64388;BME280;50709;52.648;4.764;2023-07-08T12:36:49;101671.78;;;30.86;36.42
64388;BME280;50709;52.648;4.764;2023-07-08T12:39:16;101667.09;;;31.40;36.02
64388;BME280;50709;52.648;4.764;2023-07-08T12:41:43;101679.75;;;31.27;35.93
64388;BME280;50709;52.648;4.764;2023-07-08T12:44:20;101674.72;;;31.09;36.15
64388;BME280;50709;52.648;4.764;2023-07-08T12:46:47;101666.41;;;30.86;35.89
64388;BME280;50709;52.648;4.764;2023-07-08T12:49:33;101679.34;;;30.56;35.93
64388;BME280;50709;52.648;4.764;2023-07-08T12:52:00;101677.41;;;30.83;36.68
64388;BME280;50709;52.648;4.764;2023-07-08T12:54:28;101681.31;;;31.18;36.19
64388;BME280;50709;52.648;4.764;2023-07-08T12:56:54;101671.66;;;31.27;35.32
64388;BME280;50709;52.648;4.764;2023-07-08T12:59:21;101675.84;;;31.44;35.46
64388;BME280;50709;52.648;4.764;2023-07-08T13:01:48;101673.31;;;31.03;35.88
64388;BME280;50709;52.648;4.764;2023-07-08T13:04:16;101670.72;;;31.02;36.57
64388;BME280;50709;52.648;4.764;2023-07-08T13:06:43;101676.03;;;31.03;36.28
64388;BME280;50709;52.648;4.764;2023-07-08T13:11:47;101672.56;;;31.14;36.04
64388;BME280;50709;52.648;4.764;2023-07-08T13:14:14;101669.97;;;31.50;36.10
64388;BME280;50709;52.648;4.764;2023-07-08T13:16:40;101673.34;;;31.78;36.17
64388;BME280;50709;52.648;4.764;2023-07-08T13:19:05;101673.69;;;31.36;35.95
64388;BME280;50709;52.648;4.764;2023-07-08T13:21:31;101671.44;;;31.30;36.15
64388;BME280;50709;52.648;4.764;2023-07-08T13:23:58;101675.13;;;31.29;36.00
64388;BME280;50709;52.648;4.764;2023-07-08T13:26:26;101637.22;;;31.30;36.70
64388;BME280;50709;52.648;4.764;2023-07-08T13:29:09;101660.69;;;31.78;35.71
64388;BME280;50709;52.648;4.764;2023-07-08T13:31:38;101642.78;;;31.77;35.33
64388;BME280;50709;52.648;4.764;2023-07-08T13:34:17;101654.44;;;31.78;36.20
64388;BME280;50709;52.648;4.764;2023-07-08T13:36:45;101657.38;;;31.99;35.74
64388;BME280;50709;52.648;4.764;2023-07-08T13:39:43;101666.34;;;31.75;36.38
64388;BME280;50709;52.648;4.764;2023-07-08T13:42:09;101653.44;;;31.54;36.04
64388;BME280;50709;52.648;4.764;2023-07-08T13:44:40;101659.72;;;31.79;36.00
64388;BME280;50709;52.648;4.764;2023-07-08T13:47:20;101663.41;;;31.78;35.27
64388;BME280;50709;52.648;4.764;2023-07-08T13:49:47;101666.69;;;31.95;34.97
64388;BME280;50709;52.648;4.764;2023-07-08T13:52:20;101659.47;;;31.82;35.86
64388;BME280;50709;52.648;4.764;2023-07-08T13:54:51;101661.22;;;31.83;35.91
64388;BME280;50709;52.648;4.764;2023-07-08T13:57:28;101664.97;;;32.05;35.43
64388;BME280;50709;52.648;4.764;2023-07-08T13:59:54;101666.34;;;32.11;35.36